Vekso, Denmark
Current Conditions -  °F | °C
As of 11:20 PM on Wednesday 22 Oct 2014 (Local Time) from EKRK Reporting Station
Light Rain Light Rain  
Wind Chill: 50°   Ceiling: 800
Heat Index: 50°   Visibility: 6mi
Dew Point: 48°   Wind: 9mph
Humidity: 94%   Direction: 80°E
Pressure: 29.97"   Gusts: NA
Location:  55.75°N, 12.24°E
Report Text: EKRK 222120Z AUTO 08008KT 9999NDV -RA FEW006/// BKN008///OVC012/// 10/09 Q1015
Loading
Personal Weather Stations






























Interactive Weather Map
Tropical Storm Tracking
New forecast layout! Learn more

10-Day Weather Forecast

Advertisements
Track Severe Weather on mobile